»·PEaware :: SWA5150 KSJC-KPDX

SWA5150 :: KSJC-KPDX

FLIGHT INFORMATION

Flight Status: Arrived
Operator:
Southwest Airlines
More flights by this operator :: More flights under this callsign
Pilot: Anonymous 17686 (17686)
Aircraft: BOEING 737-200
(B732)
More flights by this aircraft type
Origin: KSJC Mineta San Jose Intl
United States
Destination: KPDX Portland Intl
United States
More flights between these airports :: More routes between these airports
Route: +LOUPE4 BMRNG OAK J1 OED OCITY2
File this flight plan on PilotEdge
Remarks:
Altitude:
(Current/Filed)
28,000ft
Speed:
(Current/Filed)
450kts
Departed: 10-Oct-18 12:08 PM
Arrived: 10-Oct-18 01:41 PM
Distance/Time
Traveled:
495nm/1:33
Distance/Time
To Go:
Arrived

Flight Plot

Page will automatically refresh every two minutes.

Flight plan parsing failed; only flown route is shown


Map Options




Map Legend


Flown Route
Filed Route
Departure Airport
Arrival Airport
Navaid (VOR, NDB)
Fix

Horizontal Profiles

Position Reports

Time Latitude Longitude Heading Altitude Ground
Speed
10-Oct-18 11:52 37.370321 -121.931444 61 71ft 0kts
10-Oct-18 11:53 37.370321 -121.931444 61 71ft 0kts
10-Oct-18 11:54 37.370321 -121.931444 61 71ft 0kts
10-Oct-18 11:55 37.370321 -121.931444 61 71ft 0kts
10-Oct-18 11:56 37.370321 -121.931444 61 71ft 0kts
10-Oct-18 11:57 37.370321 -121.931444 61 71ft 0kts
10-Oct-18 11:58 37.370321 -121.931444 61 71ft 0kts
10-Oct-18 11:59 37.370321 -121.931444 61 71ft 0kts
10-Oct-18 12:00 37.370249 -121.931613 61 71ft 2kts
10-Oct-18 12:01 37.370187 -121.932326 140 71ft 2kts
10-Oct-18 12:02 37.370223 -121.932364 139 71ft 0kts
10-Oct-18 12:03 37.370223 -121.932364 139 71ft 0kts
10-Oct-18 12:04 37.370223 -121.932364 139 71ft 0kts
10-Oct-18 12:05 37.366709 -121.928463 138 71ft 31kts
10-Oct-18 12:06 37.361731 -121.923027 138 71ft 21kts
10-Oct-18 12:07 37.357493 -121.918426 140 71ft 19kts
10-Oct-18 12:08 37.353739 -121.914319 143 71ft 16kts
10-Oct-18 12:09 37.352554 -121.915442 272 71ft 10kts
10-Oct-18 12:10 37.355441 -121.918791 318 71ft 86kts
10-Oct-18 12:11 37.392472 -121.956991 320 1596ft 214kts
10-Oct-18 12:12 37.449693 -121.928819 91 4278ft 261kts
10-Oct-18 12:13 37.415836 -121.865594 136 4995ft 275kts
10-Oct-18 12:14 37.363876 -121.798978 136 5494ft 275kts
10-Oct-18 12:15 37.310116 -121.730318 135 8149ft 286kts
10-Oct-18 12:16 37.251566 -121.657978 135 10173ft 312kts
10-Oct-18 12:17 37.183387 -121.576987 135 11826ft 348kts
10-Oct-18 12:18 37.104070 -121.508837 175 13993ft 363kts
10-Oct-18 12:19 37.031776 -121.575797 263 16031ft 344kts
10-Oct-18 12:20 37.072698 -121.675812 321 17791ft 343kts
10-Oct-18 12:21 37.148446 -121.750204 322 19393ft 351kts
10-Oct-18 12:22 37.226915 -121.824721 323 20827ft 357kts
10-Oct-18 12:23 37.306998 -121.899841 323 22089ft 363kts
10-Oct-18 12:24 37.390022 -121.973153 326 23204ft 369kts
10-Oct-18 12:25 37.476554 -122.044371 326 24187ft 374kts
10-Oct-18 12:26 37.565312 -122.113731 328 25061ft 379kts
10-Oct-18 12:27 37.656448 -122.181268 330 25837ft 383kts
10-Oct-18 12:28 37.772242 -122.235816 2 26591ft 398kts
10-Oct-18 12:29 37.863896 -122.224238 356 27043ft 399kts
10-Oct-18 12:30 37.975389 -122.222969 357 27557ft 404kts
10-Oct-18 12:31 38.087916 -122.220504 357 27890ft 411kts
10-Oct-18 12:32 38.203920 -122.218086 357 27906ft 423kts
10-Oct-18 12:33 38.322733 -122.215763 357 27908ft 435kts
10-Oct-18 12:34 38.444871 -122.217210 355 27902ft 443kts
10-Oct-18 12:35 38.568903 -122.220842 355 27901ft 449kts
10-Oct-18 12:36 38.693884 -122.224536 355 27902ft 454kts
10-Oct-18 12:37 38.820378 -122.228268 355 27892ft 457kts
10-Oct-18 12:38 38.947258 -122.232447 355 27884ft 458kts
10-Oct-18 12:39 39.074650 -122.240048 355 27889ft 460kts
10-Oct-18 12:40 39.202117 -122.248423 356 27895ft 462kts
10-Oct-18 12:41 39.330414 -122.253737 357 27886ft 464kts
10-Oct-18 12:42 39.459234 -122.254890 1 27880ft 465kts
10-Oct-18 12:43 39.587952 -122.239962 3 27880ft 466kts
10-Oct-18 12:44 39.716840 -122.226964 359 27878ft 465kts
10-Oct-18 12:45 39.846069 -122.234629 355 27878ft 465kts
10-Oct-18 12:46 39.974727 -122.243230 355 27878ft 465kts
10-Oct-18 12:47 40.103682 -122.245223 0 27878ft 466kts
10-Oct-18 12:48 40.227680 -122.275805 348 27884ft 463kts
10-Oct-18 12:49 40.356170 -122.303879 350 27881ft 464kts
10-Oct-18 12:50 40.482057 -122.340205 345 27880ft 464kts
10-Oct-18 12:51 40.606615 -122.381937 345 27879ft 464kts
10-Oct-18 12:52 40.731213 -122.423679 345 27879ft 464kts
10-Oct-18 12:53 40.856322 -122.465556 345 27878ft 464kts
10-Oct-18 12:54 40.980810 -122.507222 345 27880ft 464kts
10-Oct-18 12:55 41.103899 -122.539953 351 27934ft 444kts
10-Oct-18 12:56 41.222908 -122.565200 351 27995ft 427kts
10-Oct-18 12:57 41.338138 -122.589759 351 28016ft 415kts
10-Oct-18 12:58 41.448924 -122.623661 343 28015ft 407kts
10-Oct-18 12:59 41.555781 -122.669229 342 28016ft 401kts
10-Oct-18 13:00 41.662295 -122.708242 345 28015ft 395kts
10-Oct-18 13:01 41.767982 -122.744765 346 28015ft 392kts
10-Oct-18 13:02 41.873104 -122.780357 349 28012ft 389kts
10-Oct-18 13:03 41.977585 -122.801883 355 28014ft 386kts
10-Oct-18 13:04 42.086234 -122.808554 357 28018ft 384kts
10-Oct-18 13:05 42.191036 -122.831554 348 28034ft 388kts
10-Oct-18 13:06 42.298437 -122.864827 347 28033ft 404kts
10-Oct-18 13:07 42.409811 -122.900135 347 28032ft 420kts
10-Oct-18 13:08 42.527109 -122.914818 3 28034ft 433kts
10-Oct-18 13:09 42.647913 -122.898207 5 28028ft 443kts
10-Oct-18 13:10 42.771290 -122.882590 3 28027ft 451kts
10-Oct-18 13:11 42.896611 -122.870190 3 28021ft 446kts
10-Oct-18 13:12 42.998262 -122.859940 3 28047ft 433kts
10-Oct-18 13:13 43.135754 -122.848358 2 28072ft 420kts
10-Oct-18 13:14 43.251026 -122.839401 2 28074ft 413kts
10-Oct-18 13:15 43.345795 -122.831959 2 28073ft 409kts
10-Oct-18 13:16 43.477438 -122.821506 2 28072ft 404kts
10-Oct-18 13:17 43.570197 -122.814061 2 28075ft 401kts
10-Oct-18 13:18 43.680991 -122.805192 2 28035ft 400kts
10-Oct-18 13:19 43.791737 -122.797652 2 27996ft 398kts
10-Oct-18 13:20 43.902018 -122.790091 2 27995ft 396kts
10-Oct-18 13:21 44.011364 -122.782523 2 27993ft 394kts
10-Oct-18 13:22 44.120224 -122.774912 2 28003ft 393kts
10-Oct-18 13:23 44.228857 -122.768687 1 27925ft 381kts
10-Oct-18 13:24 44.333722 -122.764545 1 25705ft 376kts
10-Oct-18 13:25 44.436531 -122.761209 1 24130ft 366kts
10-Oct-18 13:26 44.537048 -122.756029 2 21836ft 359kts
10-Oct-18 13:27 44.634797 -122.751280 2 19028ft 345kts
10-Oct-18 13:28 44.730979 -122.746728 2 16292ft 341kts
10-Oct-18 13:29 44.824194 -122.739591 4 14055ft 334kts
10-Oct-18 13:30 44.914488 -122.726662 6 11993ft 303kts
10-Oct-18 13:31 44.992987 -122.713806 7 10061ft 287kts
10-Oct-18 13:32 45.068575 -122.690758 24 7926ft 276kts
10-Oct-18 13:33 45.136910 -122.645200 24 5809ft 269kts
10-Oct-18 13:34 45.214736 -122.593354 24 4187ft 255kts
10-Oct-18 13:35 45.265628 -122.559485 24 3942ft 240kts
10-Oct-18 13:36 45.324778 -122.520104 24 3561ft 234kts
10-Oct-18 13:37 45.383543 -122.481007 24 3092ft 227kts
10-Oct-18 13:38 45.440147 -122.443410 24 2497ft 211kts
10-Oct-18 13:39 45.489952 -122.411975 2 2487ft 183kts
10-Oct-18 13:40 45.529817 -122.456132 306 2146ft 211kts
10-Oct-18 13:41 45.556876 -122.523318 300 944ft 159kts
10-Oct-18 13:42 45.576507 -122.573551 298 259ft 144kts
10-Oct-18 13:43 45.591655 -122.612368 307 38ft 27kts
10-Oct-18 13:44 45.592949 -122.610975 119 38ft 15kts
10-Oct-18 13:45 45.591397 -122.603051 90 38ft 23kts
10-Oct-18 13:46 45.590212 -122.597704 219 38ft 6kts
10-Oct-18 13:47 45.590010 -122.597933 209 38ft 0kts

Navigation Log

Ident Type
Flight plan parsing failed, navigation log unavailable